Time;durP1;ratioP1;P1;durP2;ratioP2;P2;SDS_P1;SDS_P2;PMS_P1;PMS_P2;Temp;Humidity;BMP_temperature;BMP_pressure;BME280_temperature;BME280_humidity;BME280_pressure;Samples;Min_cycle;Max_cycle;Signal;HPM_P1;HPM_P2
2023/10/25 00:00:32;;;;;;;20.55;5.78;;;;;;;18.91;77.20;98442.34;4428998;32;33891;-82
2023/10/25 00:03:00;;;;;;;21.97;5.00;;;;;;;18.61;79.15;98450.47;4423960;32;33822;-80
2023/10/25 00:05:33;;;;;;;19.30;5.13;;;;;;;18.89;78.00;98450.25;4415090;32;33470;-80
2023/10/25 00:08:01;;;;;;;19.40;5.03;;;;;;;19.12;77.25;98446.47;4427236;32;33889;-82
2023/10/25 00:10:28;;;;;;;19.42;5.20;;;;;;;19.21;76.54;98435.88;4422223;32;33331;-80
2023/10/25 00:13:00;;;;;;;24.00;4.82;;;;;;;18.80;78.56;98424.09;4423136;32;33258;-81
2023/10/25 00:15:27;;;;;;;16.20;4.22;;;;;;;18.94;78.42;98429.19;4424104;32;32298;-82
2023/10/25 00:17:55;;;;;;;19.65;4.72;;;;;;;18.84;79.00;98416.16;4425351;32;33927;-81
2023/10/25 00:20:22;;;;;;;18.98;4.57;;;;;;;18.93;78.77;98415.22;4426449;32;34154;-80
2023/10/25 00:22:50;;;;;;;15.80;3.90;;;;;;;18.80;79.11;98413.59;4428060;32;33653;-82
2023/10/25 00:25:18;;;;;;;19.42;5.07;;;;;;;18.75;79.49;98420.59;4421172;32;33622;-82
2023/10/25 00:27:45;;;;;;;18.90;4.43;;;;;;;18.59;80.25;98418.13;4422485;32;33847;-82
2023/10/25 00:30:13;;;;;;;19.17;4.70;;;;;;;18.74;79.56;98413.63;4422481;32;34568;-81
2023/10/25 00:32:42;;;;;;;30.58;5.28;;;;;;;18.64;80.14;98405.00;4423840;32;33929;-82
2023/10/25 00:35:10;;;;;;;18.02;4.43;;;;;;;18.71;79.57;98406.66;4425417;32;33528;-80
2023/10/25 00:37:38;;;;;;;21.00;4.32;;;;;;;18.73;79.70;98401.41;4424419;32;33341;-80
2023/10/25 00:40:06;;;;;;;16.85;4.30;;;;;;;18.99;78.37;98399.38;4425663;32;33661;-81
2023/10/25 00:42:33;;;;;;;17.98;4.25;;;;;;;19.08;77.86;98394.91;4420896;32;33392;-82
2023/10/25 00:45:01;;;;;;;19.85;4.53;;;;;;;18.80;79.26;98393.47;4422731;32;33589;-81
2023/10/25 00:47:29;;;;;;;18.55;4.15;;;;;;;18.85;79.04;98401.28;4423544;32;32811;-81
2023/10/25 00:49:57;;;;;;;21.50;4.68;;;;;;;18.85;79.35;98402.19;4410551;32;33661;-80
2023/10/25 00:52:25;;;;;;;20.12;4.30;;;;;;;18.85;79.15;98396.03;4423597;32;33451;-80
2023/10/25 00:54:52;;;;;;;19.17;3.97;;;;;;;18.99;78.69;98399.38;4429050;32;32856;-82
2023/10/25 00:57:20;;;;;;;18.40;4.13;;;;;;;19.27;76.20;98379.81;4410594;32;33573;-80
2023/10/25 00:59:49;;;;;;;22.10;4.85;;;;;;;19.30;76.12;98372.75;4415578;32;34287;-82
2023/10/25 01:02:17;;;;;;;20.98;5.10;;;;;;;18.99;77.75;98378.41;4411315;32;34470;-81
2023/10/25 01:04:45;;;;;;;20.00;4.95;;;;;;;19.13;77.26;98374.75;4408299;32;33762;-82
2023/10/25 01:07:12;;;;;;;21.15;4.90;;;;;;;18.76;78.82;98369.91;4425208;32;33247;-80
2023/10/25 01:09:40;;;;;;;20.50;4.93;;;;;;;18.94;78.25;98364.44;4425597;32;33877;-82
2023/10/25 01:12:09;;;;;;;20.20;5.20;;;;;;;18.99;77.58;98349.53;4419421;32;33786;-81
2023/10/25 01:14:36;;;;;;;20.02;4.82;;;;;;;19.07;77.77;98327.59;4413852;32;33684;-82
2023/10/25 01:17:04;;;;;;;19.85;4.72;;;;;;;18.90;78.04;98315.53;4425847;32;34232;-80
2023/10/25 01:19:32;;;;;;;20.05;5.00;;;;;;;18.81;78.79;98307.78;4430298;32;33847;-82
2023/10/25 01:21:59;;;;;;;19.62;4.78;;;;;;;18.73;79.11;98296.47;4426914;32;34445;-81
2023/10/25 01:24:27;;;;;;;21.25;4.60;;;;;;;18.78;78.99;98294.69;4429459;32;33756;-82
2023/10/25 01:26:54;;;;;;;17.00;4.70;;;;;;;18.89;78.89;98290.19;4421344;32;34481;-81
2023/10/25 01:29:22;;;;;;;20.73;5.40;;;;;;;18.73;79.23;98297.34;4424933;32;34493;-81
2023/10/25 01:31:50;;;;;;;16.35;5.00;;;;;;;18.73;79.19;98292.09;4422686;32;34515;-80
2023/10/25 01:34:18;;;;;;;17.05;5.28;;;;;;;18.84;78.63;98285.00;4428507;32;33903;-81
2023/10/25 01:36:46;;;;;;;17.10;5.63;;;;;;;18.61;79.80;98287.00;4423106;32;33930;-82
2023/10/25 01:39:15;;;;;;;21.27;5.60;;;;;;;18.58;80.27;98276.53;4426610;32;33698;-79
2023/10/25 01:41:44;;;;;;;19.90;5.10;;;;;;;18.55;80.56;98302.81;4423952;32;33234;-81
2023/10/25 01:44:11;;;;;;;21.33;6.22;;;;;;;18.49;80.77;98306.38;4422103;32;33521;-80
2023/10/25 01:46:39;;;;;;;18.83;5.93;;;;;;;18.53;80.72;98299.34;4425038;32;33187;-81
2023/10/25 01:49:07;;;;;;;20.42;5.43;;;;;;;18.85;79.32;98283.22;4415807;32;33546;-79
2023/10/25 01:51:35;;;;;;;21.17;5.93;;;;;;;18.65;80.10;98293.94;4422483;32;34480;-81
2023/10/25 01:54:03;;;;;;;19.33;6.18;;;;;;;18.72;80.13;98289.50;4420808;32;33901;-82
2023/10/25 01:56:30;;;;;;;19.15;5.82;;;;;;;18.60;80.43;98301.87;4421766;32;33629;-82
2023/10/25 01:58:59;;;;;;;19.40;6.15;;;;;;;18.58;80.63;98287.91;4421803;32;33771;-82
2023/10/25 02:01:26;;;;;;;19.20;6.03;;;;;;;18.49;81.05;98274.06;4422042;32;34527;-81
2023/10/25 02:03:55;;;;;;;20.70;5.67;;;;;;;18.57;80.65;98262.56;4424036;32;33261;-82
2023/10/25 02:06:23;;;;;;;18.65;6.20;;;;;;;18.63;80.31;98270.34;4424280;32;32083;-82
2023/10/25 02:08:51;;;;;;;19.10;6.25;;;;;;;18.55;80.83;98276.59;4420947;32;34407;-80
2023/10/25 02:11:20;;;;;;;19.67;6.27;;;;;;;18.56;80.70;98276.59;4411186;32;32083;-81
2023/10/25 02:13:48;;;;;;;19.48;6.00;;;;;;;18.49;81.15;98277.53;4410431;32;32773;-80
2023/10/25 02:16:16;;;;;;;19.50;5.82;;;;;;;18.51;81.07;98270.50;4424212;32;33577;-80
2023/10/25 02:18:44;;;;;;;17.73;6.30;;;;;;;18.45;81.40;98265.34;4429632;32;34328;-80
2023/10/25 02:21:12;;;;;;;18.30;6.40;;;;;;;18.50;81.13;98276.63;4434332;32;33636;-81
2023/10/25 02:23:40;;;;;;;19.33;6.40;;;;;;;18.63;80.50;98265.09;4425133;32;33742;-81
2023/10/25 02:26:08;;;;;;;19.75;6.37;;;;;;;18.76;79.69;98262.34;4432393;32;33961;-80
2023/10/25 02:28:35;;;;;;;22.87;7.05;;;;;;;18.54;80.99;98266.97;4426697;32;33836;-80
2023/10/25 02:31:03;;;;;;;19.35;6.90;;;;;;;18.63;80.35;98261.63;4423932;32;34451;-82
2023/10/25 02:33:30;;;;;;;19.95;5.93;;;;;;;18.53;80.79;98253.00;4424369;32;34653;-80
2023/10/25 02:35:58;;;;;;;15.88;6.20;;;;;;;18.50;80.93;98250.41;4425777;32;33611;-81
2023/10/25 02:38:25;;;;;;;20.00;6.70;;;;;;;18.58;80.61;98256.44;4417117;32;34092;-80
2023/10/25 02:40:54;;;;;;;18.15;6.50;;;;;;;18.48;81.12;98260.03;4429946;32;33575;-79
2023/10/25 02:43:22;;;;;;;20.05;6.68;;;;;;;18.61;80.41;98256.41;4432239;32;33845;-80
2023/10/25 02:45:49;;;;;;;18.35;7.32;;;;;;;18.51;80.90;98248.69;4426197;32;34013;-80
2023/10/25 02:48:18;;;;;;;16.90;6.45;;;;;;;18.57;80.52;98244.22;4424829;32;33748;-82
2023/10/25 02:50:45;;;;;;;13.60;6.65;;;;;;;18.58;80.44;98255.56;4428770;32;34484;-79
2023/10/25 02:53:13;;;;;;;19.05;7.40;;;;;;;18.59;80.48;98246.81;4429303;32;33667;-81
2023/10/25 02:55:41;;;;;;;14.90;6.80;;;;;;;18.58;80.54;98245.97;4422892;32;34041;-80
2023/10/25 02:58:11;;;;;;;16.52;6.93;;;;;;;18.70;79.90;98238.81;4432279;32;34478;-82
2023/10/25 03:00:39;;;;;;;12.32;6.20;;;;;;;18.97;78.62;98217.50;4429001;32;33761;-79
2023/10/25 03:03:07;;;;;;;12.93;6.50;;;;;;;18.89;78.59;98216.75;4433472;32;33594;-80
2023/10/25 03:05:34;;;;;;;13.32;6.93;;;;;;;18.71;79.33;98214.31;4427029;32;33936;-80
2023/10/25 03:08:02;;;;;;;12.37;7.63;;;;;;;18.66;79.63;98223.13;4399409;32;882479;-81
2023/10/25 03:10:30;;;;;;;16.00;7.45;;;;;;;18.50;80.68;98232.06;4425737;32;33903;-81
2023/10/25 03:12:59;;;;;;;13.83;7.10;;;;;;;18.64;80.43;98230.16;4421765;32;33626;-81
2023/10/25 03:15:28;;;;;;;13.05;6.78;;;;;;;18.91;79.02;98233.31;4408717;32;32974;-79
2023/10/25 03:17:56;;;;;;;14.27;6.85;;;;;;;19.07;78.01;98248.84;4427111;32;34538;-79
2023/10/25 03:20:24;;;;;;;12.73;6.57;;;;;;;19.04;77.86;98249.75;4425805;32;33439;-80
2023/10/25 03:22:52;;;;;;;9.88;4.37;;;;;;;18.85;78.95;98257.00;4421765;32;34124;-78
2023/10/25 03:25:19;;;;;;;6.20;2.03;;;;;;;18.78;78.40;98277.16;4431203;32;33544;-78
2023/10/25 03:27:47;;;;;;;3.70;1.55;;;;;;;18.14;76.99;98284.03;4422537;32;33929;-80
2023/10/25 03:30:16;;;;;;;6.07;2.00;;;;;;;17.98;76.12;98292.91;4426892;32;33397;-79
2023/10/25 03:32:43;;;;;;;4.43;2.40;;;;;;;17.38;77.40;98294.22;4422183;32;33092;-82
2023/10/25 03:35:11;;;;;;;6.07;2.97;;;;;;;17.27;77.81;98301.28;4423769;32;33456;-79
2023/10/25 03:37:42;;;;;;;6.72;3.70;;;;;;;17.40;76.90;98302.94;4434374;32;34221;-79
2023/10/25 03:40:10;;;;;;;7.57;4.25;;;;;;;17.36;77.06;98300.34;4429864;32;33394;-81
2023/10/25 03:42:38;;;;;;;7.12;4.70;;;;;;;17.09;77.64;98297.00;4412153;32;33626;-82
2023/10/25 03:45:06;;;;;;;8.90;4.80;;;;;;;16.86;78.57;98292.78;4431614;32;33175;-81
2023/10/25 03:47:34;;;;;;;7.40;4.70;;;;;;;16.84;78.51;98297.16;4423704;32;33810;-82
2023/10/25 03:50:03;;;;;;;7.07;4.97;;;;;;;16.81;78.67;98299.75;4432473;32;34381;-79
2023/10/25 03:52:30;;;;;;;8.35;5.53;;;;;;;16.73;78.64;98300.63;4431071;32;33772;-80
2023/10/25 03:54:58;;;;;;;8.63;5.60;;;;;;;16.77;78.46;98305.00;4430718;32;33264;-79
2023/10/25 03:57:26;;;;;;;9.30;5.77;;;;;;;16.76;78.65;98300.63;4434983;32;34496;-81
2023/10/25 03:59:54;;;;;;;9.10;6.20;;;;;;;16.63;79.18;98308.53;4424525;32;33873;-80
2023/10/25 04:02:21;;;;;;;9.60;6.27;;;;;;;16.45;79.43;98308.56;4427910;32;33523;-81
2023/10/25 04:04:49;;;;;;;10.80;6.95;;;;;;;16.39;79.66;98319.06;4422597;32;33910;-81
2023/10/25 04:07:17;;;;;;;10.13;7.07;;;;;;;16.19;80.59;98322.56;4409527;32;33661;-82
2023/10/25 04:09:44;;;;;;;11.02;7.68;;;;;;;16.09;80.79;98320.84;4423875;32;33868;-81
2023/10/25 04:12:13;;;;;;;10.95;7.32;;;;;;;16.18;80.77;98331.28;4426692;32;34531;-79
2023/10/25 04:14:46;;;;;;;11.48;7.72;;;;;;;16.13;80.81;98327.81;4429860;32;33594;-79
2023/10/25 04:17:14;;;;;;;11.65;8.20;;;;;;;16.09;81.14;98336.53;4408201;32;31721;-81
2023/10/25 04:19:42;;;;;;;12.77;8.40;;;;;;;16.13;81.06;98340.88;4433881;32;34599;-80
2023/10/25 04:22:13;;;;;;;12.18;8.30;;;;;;;16.18;80.89;98346.94;4421456;32;34516;-82
2023/10/25 04:24:41;;;;;;;12.10;8.23;;;;;;;16.48;79.85;98350.41;4428530;32;32986;-80
2023/10/25 04:27:08;;;;;;;12.00;7.80;;;;;;;16.33;80.24;98351.28;4434070;32;33871;-79
2023/10/25 04:29:35;;;;;;;11.40;7.57;;;;;;;16.40;79.81;98362.59;4423932;32;33872;-80
2023/10/25 04:32:03;;;;;;;9.65;6.87;;;;;;;16.39;80.14;98361.72;4428803;32;34230;-81
2023/10/25 04:34:31;;;;;;;9.82;6.57;;;;;;;16.38;79.85;98364.34;4422203;32;33753;-80
2023/10/25 04:36:59;;;;;;;11.00;7.18;;;;;;;16.24;79.74;98362.59;4429374;32;33987;-80
2023/10/25 04:39:26;;;;;;;10.57;7.15;;;;;;;16.34;79.70;98362.59;4435949;32;33783;-83
2023/10/25 04:41:54;;;;;;;11.35;7.30;;;;;;;16.50;79.13;98370.41;4424232;32;33328;-81
2023/10/25 04:44:21;;;;;;;9.70;6.37;;;;;;;16.60;78.15;98366.03;4417957;32;33959;-80
2023/10/25 04:46:49;;;;;;;10.52;6.78;;;;;;;16.21;79.63;98367.84;4428168;32;33558;-81
2023/10/25 04:49:16;;;;;;;10.95;7.00;;;;;;;16.01;80.56;98372.22;4431983;32;33195;-80
2023/10/25 04:51:44;;;;;;;8.80;6.15;;;;;;;16.29;79.47;98376.53;4423030;32;33856;-82
2023/10/25 04:54:12;;;;;;;9.40;6.50;;;;;;;16.34;79.08;98381.78;4433803;32;33853;-80
2023/10/25 04:56:39;;;;;;;9.20;5.85;;;;;;;16.12;80.14;98383.53;4424157;32;32188;-78
2023/10/25 04:59:07;;;;;;;8.38;6.12;;;;;;;16.29;79.69;98381.78;4430411;32;33592;-80
2023/10/25 05:01:34;;;;;;;8.05;5.45;;;;;;;16.31;78.90;98390.47;4427967;32;35158;-78
2023/10/25 05:04:02;;;;;;;8.47;5.50;;;;;;;16.34;78.80;98393.97;4410131;32;31968;-80
2023/10/25 05:06:30;;;;;;;8.18;5.57;;;;;;;16.05;79.73;98392.22;4420086;32;33510;-80
2023/10/25 05:08:58;;;;;;;8.43;5.43;;;;;;;16.38;78.54;98390.47;4432677;32;34585;-82
2023/10/25 05:11:29;;;;;;;8.75;5.37;;;;;;;16.43;77.97;98400.03;4435269;32;33713;-81
2023/10/25 05:13:57;;;;;;;8.69;5.61;;;;;;;16.12;79.16;98407.03;4426029;32;33676;-79
2023/10/25 05:16:25;;;;;;;8.20;5.50;;;;;;;16.23;78.17;98415.75;4427458;32;33315;-80
2023/10/25 05:18:52;;;;;;;8.33;5.47;;;;;;;16.03;79.25;98415.75;4426463;32;34227;-81
2023/10/25 05:21:24;;;;;;;8.67;5.60;;;;;;;16.10;79.40;98417.47;4428437;32;33522;-81
2023/10/25 05:23:52;;;;;;;9.07;6.10;;;;;;;16.00;79.44;98420.09;4430307;32;32850;-80
2023/10/25 05:26:20;;;;;;;9.50;6.25;;;;;;;15.95;79.49;98427.06;4423105;32;32566;-80
2023/10/25 05:28:48;;;;;;;8.65;6.00;;;;;;;16.08;78.15;98424.44;4424465;32;34445;-78
2023/10/25 05:31:17;;;;;;;8.95;6.22;;;;;;;15.86;79.30;98439.22;4426340;32;33746;-79
2023/10/25 05:33:45;;;;;;;10.02;7.28;;;;;;;16.00;78.79;98436.63;4425178;32;33921;-80
2023/10/25 05:36:13;;;;;;;10.20;7.35;;;;;;;15.83;79.22;98436.59;4429232;32;33818;-81
2023/10/25 05:38:41;;;;;;;9.80;7.80;;;;;;;15.97;78.79;98440.97;4412460;32;32428;-81
2023/10/25 05:41:12;;;;;;;11.43;8.25;;;;;;;15.99;78.58;98449.69;4431471;32;34544;-80
2023/10/25 05:43:41;;;;;;;13.00;8.20;;;;;;;16.19;77.13;98454.94;4409467;32;33126;-79
2023/10/25 05:46:09;;;;;;;10.30;8.73;;;;;;;15.95;78.47;98468.84;4431073;32;35414;-82
2023/10/25 05:48:37;;;;;;;11.73;8.75;;;;;;;16.13;77.15;98474.09;4429472;32;34574;-80
2023/10/25 05:51:05;;;;;;;11.05;8.70;;;;;;;16.06;77.68;98467.13;4427451;32;33724;-81
2023/10/25 05:53:33;;;;;;;11.45;9.32;;;;;;;15.99;77.76;98476.66;4433541;32;33327;-81
2023/10/25 05:56:02;;;;;;;10.82;8.38;;;;;;;15.83;78.29;98486.22;4399067;32;33782;-81
2023/10/25 05:58:30;;;;;;;10.15;8.82;;;;;;;15.82;78.35;98497.53;4416955;32;33724;-80
2023/10/25 06:01:00;;;;;;;9.88;8.38;;;;;;;16.01;77.85;98500.19;4431413;32;33925;-81
2023/10/25 06:03:28;;;;;;;10.50;8.77;;;;;;;15.96;77.40;98508.03;4426001;32;33671;-79
2023/10/25 06:06:00;;;;;;;11.07;8.38;;;;;;;15.99;77.19;98517.59;4418770;32;33041;-79
2023/10/25 06:08:29;;;;;;;10.30;8.60;;;;;;;16.04;76.67;98532.41;4430429;32;34444;-80
2023/10/25 06:10:57;;;;;;;11.18;7.70;;;;;;;15.95;77.14;98541.97;4428174;32;33394;-81
2023/10/25 06:13:24;;;;;;;10.20;7.47;;;;;;;16.08;76.07;98554.19;4426746;32;34034;-81
2023/10/25 06:15:52;;;;;;;8.30;7.35;;;;;;;16.10;75.44;98553.31;4408505;32;32091;-80
2023/10/25 06:18:20;;;;;;;9.68;7.25;;;;;;;15.85;76.41;98568.03;4422868;32;34109;-79
2023/10/25 06:20:47;;;;;;;10.10;8.00;;;;;;;16.04;75.40;98573.34;4423106;32;33563;-78
2023/10/25 06:23:15;;;;;;;9.77;7.10;;;;;;;16.00;76.29;98572.44;4433097;32;33562;-80
2023/10/25 06:25:42;;;;;;;8.75;6.70;;;;;;;16.06;75.06;98582.03;4427399;32;34421;-81
2023/10/25 06:28:10;;;;;;;9.27;7.03;;;;;;;16.14;74.98;98590.78;4428346;32;33830;-81
2023/10/25 06:30:38;;;;;;;8.93;6.70;;;;;;;16.09;74.93;98587.28;4424792;32;34007;-81
2023/10/25 06:33:06;;;;;;;8.95;6.78;;;;;;;16.03;75.02;98593.38;4426784;32;33145;-81
2023/10/25 06:35:33;;;;;;;8.95;6.62;;;;;;;16.22;74.21;98599.50;4426148;32;33817;-77
2023/10/25 06:38:01;;;;;;;8.38;6.80;;;;;;;16.10;77.66;98604.69;4425602;32;34672;-80
2023/10/25 06:40:30;;;;;;;8.93;6.40;;;;;;;16.17;75.85;98614.31;4422637;32;34428;-81
2023/10/25 06:42:58;;;;;;;8.27;6.18;;;;;;;16.34;74.13;98616.06;4422686;32;34246;-81
2023/10/25 06:45:26;;;;;;;9.52;5.93;;;;;;;16.23;74.08;98610.84;4422568;32;34429;-81
2023/10/25 06:47:54;;;;;;;8.10;6.03;;;;;;;16.29;73.53;98614.34;4426923;32;33198;-81
2023/10/25 06:50:25;;;;;;;8.10;6.25;;;;;;;16.22;74.21;98599.50;4429853;32;33719;-80
2023/10/25 06:52:53;;;;;;;8.45;5.68;;;;;;;16.37;73.68;98592.59;4429403;32;32647;-82
2023/10/25 06:55:21;;;;;;;7.63;5.43;;;;;;;16.46;73.06;98583.00;4428586;32;33614;-80
2023/10/25 06:57:49;;;;;;;8.52;5.40;;;;;;;16.38;72.73;98589.09;4429567;32;33893;-81
2023/10/25 07:00:18;;;;;;;8.93;5.30;;;;;;;16.21;73.75;98592.53;4426131;32;33658;-81
2023/10/25 07:02:53;;;;;;;8.10;5.32;;;;;;;15.98;77.46;98573.31;4428765;32;33272;-81
2023/10/25 07:05:23;;;;;;;8.00;5.50;;;;;;;15.73;75.71;98579.31;4415591;32;33042;-79
2023/10/25 07:07:51;;;;;;;7.00;5.40;;;;;;;16.20;74.14;98585.56;4416870;32;31878;-79
2023/10/25 07:10:20;;;;;;;7.07;5.18;;;;;;;16.24;73.93;98589.06;4431265;32;31684;-79
2023/10/25 07:12:48;;;;;;;7.75;5.00;;;;;;;16.51;72.42;98591.75;4429512;32;34026;-81
2023/10/25 07:15:16;;;;;;;7.45;4.53;;;;;;;16.41;72.81;98604.78;4433589;32;33804;-80
2023/10/25 07:17:44;;;;;;;7.22;4.82;;;;;;;16.39;73.06;98591.69;4424032;32;33548;-80
2023/10/25 07:20:12;;;;;;;6.93;5.00;;;;;;;16.37;72.69;98584.75;4423291;32;33749;-80
2023/10/25 07:22:40;;;;;;;7.70;4.90;;;;;;;16.32;73.16;98584.72;4426291;32;33368;-81
2023/10/25 07:25:08;;;;;;;7.55;4.60;;;;;;;16.39;73.18;98585.63;4413560;32;33842;-78
2023/10/25 07:27:39;;;;;;;6.82;4.35;;;;;;;16.45;72.48;98593.47;4427152;32;33360;-81
2023/10/25 07:30:06;;;;;;;7.87;4.25;;;;;;;16.58;71.82;98582.16;4433815;32;33318;-79
2023/10/25 07:32:35;;;;;;;6.40;4.50;;;;;;;16.37;72.73;98577.75;4421141;32;33602;-82
2023/10/25 07:35:04;;;;;;;6.60;4.30;;;;;;;16.58;72.47;98587.38;4433565;32;34095;-79
2023/10/25 07:37:32;;;;;;;7.10;4.20;;;;;;;16.53;72.10;98581.25;4411026;32;33656;-81
2023/10/25 07:39:59;;;;;;;6.40;3.90;;;;;;;16.43;72.76;98590.84;4408721;32;33667;-81
2023/10/25 07:42:27;;;;;;;6.05;4.18;;;;;;;16.61;72.01;98600.47;4427908;32;33842;-81
2023/10/25 07:44:55;;;;;;;6.03;4.03;;;;;;;16.69;72.28;98606.56;4414634;32;33505;-81
2023/10/25 07:47:23;;;;;;;6.40;4.10;;;;;;;16.60;72.58;98632.69;4423353;32;33345;-81
2023/10/25 07:49:51;;;;;;;6.93;4.03;;;;;;;17.06;70.78;98626.69;4425349;32;33625;-81
2023/10/25 07:52:19;;;;;;;5.87;3.90;;;;;;;17.06;70.67;98627.53;4424252;32;32775;-81
2023/10/25 07:54:46;;;;;;;7.12;4.10;;;;;;;17.09;70.17;98634.50;4414768;32;33657;-80
2023/10/25 07:57:14;;;;;;;5.87;3.55;;;;;;;16.93;71.08;98638.88;4425489;32;34589;-80
2023/10/25 08:00:02;;;;;;;5.90;3.42;;;;;;;17.15;69.85;98636.25;4429512;32;33042;-80
2023/10/25 08:02:38;;;;;;;6.47;3.45;;;;;;;16.89;70.00;98642.34;4414998;32;32779;-79
2023/10/25 08:05:07;;;;;;;4.68;3.17;;;;;;;16.81;70.93;98660.63;4426353;32;33442;-81
2023/10/25 08:07:37;;;;;;;6.36;3.10;;;;;;;16.97;70.40;98658.91;4433476;32;33122;-79
2023/10/25 08:10:06;;;;;;;4.10;2.65;;;;;;;17.04;69.68;98667.66;4424965;32;33550;-80
2023/10/25 08:12:35;;;;;;;4.93;2.92;;;;;;;17.24;68.92;98665.03;4430740;32;32939;-81
2023/10/25 08:15:04;;;;;;;5.00;2.90;;;;;;;17.48;68.12;98661.50;4427819;32;33766;-80
2023/10/25 08:17:34;;;;;;;6.22;2.75;;;;;;;17.68;67.99;98666.75;4432411;32;33361;-80
2023/10/25 08:20:02;;;;;;;5.68;2.75;;;;;;;17.72;67.24;98665.00;4429916;32;34220;-80
2023/10/25 08:22:31;;;;;;;4.20;2.47;;;;;;;17.64;68.30;98665.00;4430234;32;33411;-80
2023/10/25 08:24:59;;;;;;;4.82;2.70;;;;;;;17.70;66.85;98664.97;4430330;32;33454;-80
2023/10/25 08:27:28;;;;;;;4.22;2.58;;;;;;;17.54;66.92;98658.91;4424226;32;34333;-80
2023/10/25 08:29:56;;;;;;;4.30;2.72;;;;;;;17.71;66.54;98658.84;4433605;32;32926;-81
2023/10/25 08:32:23;;;;;;;4.70;2.70;;;;;;;17.57;67.44;98658.87;4428080;32;32730;-80
2023/10/25 08:34:51;;;;;;;4.62;2.67;;;;;;;17.91;66.22;98671.09;4427885;32;33234;-80
2023/10/25 08:37:21;;;;;;;4.75;2.70;;;;;;;17.86;66.57;98690.28;4431190;32;34233;-79
2023/10/25 08:39:48;;;;;;;4.47;2.67;;;;;;;18.02;66.40;98698.09;4426731;32;33380;-79
2023/10/25 08:42:16;;;;;;;4.72;2.78;;;;;;;18.14;65.50;98711.19;4429223;32;34147;-80
2023/10/25 08:44:44;;;;;;;5.12;2.90;;;;;;;17.90;65.36;98713.87;4432736;32;33396;-80
2023/10/25 08:47:12;;;;;;;4.95;2.90;;;;;;;17.67;65.61;98727.81;4425687;32;34544;-80
2023/10/25 08:49:39;;;;;;;4.60;2.60;;;;;;;17.73;66.60;98729.56;4432179;32;34473;-80
2023/10/25 08:52:07;;;;;;;5.00;2.80;;;;;;;18.13;65.53;98745.25;4421696;32;34077;-81
2023/10/25 08:54:36;;;;;;;4.37;2.58;;;;;;;18.00;65.60;98741.78;4424645;32;33791;-81
2023/10/25 08:57:05;;;;;;;4.37;2.50;;;;;;;18.06;65.87;98739.16;4430298;32;32755;-81
2023/10/25 08:59:43;;;;;;;3.55;2.37;;;;;;;18.02;65.60;98742.66;4423482;32;34273;-81
2023/10/25 09:02:12;;;;;;;4.45;2.55;;;;;;;18.18;65.93;98748.75;4430217;32;32475;-80
2023/10/25 09:04:59;;;;;;;3.55;2.40;;;;;;;18.57;63.76;98737.22;4407459;32;34613;-81
2023/10/25 09:07:31;;;;;;;4.20;2.40;;;;;;;18.57;63.90;98747.72;4404381;32;31455;-80
2023/10/25 09:09:59;;;;;;;4.35;2.53;;;;;;;18.40;64.66;98754.78;4427306;32;33642;-81
2023/10/25 09:12:27;;;;;;;3.83;2.30;;;;;;;18.73;64.12;98771.25;4407199;32;32780;-80
2023/10/25 09:14:55;;;;;;;4.07;2.33;;;;;;;18.94;62.81;98772.94;4433125;32;33377;-81
2023/10/25 09:17:22;;;;;;;4.25;2.22;;;;;;;18.78;63.03;98778.22;4427591;32;34741;-80
2023/10/25 09:19:50;;;;;;;3.75;2.30;;;;;;;18.82;61.41;98785.22;4422996;32;33656;-81
2023/10/25 09:22:26;;;;;;;3.85;2.30;;;;;;;18.61;61.72;98790.53;4430856;32;33089;-81
2023/10/25 09:24:59;;;;;;;4.12;2.17;;;;;;;18.28;63.91;98793.25;4428187;32;33053;-82
2023/10/25 09:27:27;;;;;;;4.60;2.35;;;;;;;18.43;62.55;98799.34;4420485;32;33374;-80
2023/10/25 09:30:11;;;;;;;5.15;2.40;;;;;;;18.56;62.46;98787.94;4423169;32;32707;-80
2023/10/25 09:32:53;;;;;;;4.12;2.40;;;;;;;18.65;62.99;98806.25;4422843;32;32802;-82
2023/10/25 09:35:21;;;;;;;4.43;2.70;;;;;;;18.76;62.17;98805.34;4428159;32;34394;-81
2023/10/25 09:37:49;;;;;;;3.95;2.70;;;;;;;18.85;62.05;98810.56;4428735;32;33267;-80
2023/10/25 09:40:16;;;;;;;4.62;2.85;;;;;;;18.56;63.15;98808.94;4427449;32;34462;-83
2023/10/25 09:42:50;;;;;;;4.32;2.67;;;;;;;18.76;63.29;98800.09;4427955;32;33065;-81
2023/10/25 09:45:23;;;;;;;5.12;2.97;;;;;;;18.82;63.27;98797.50;4420381;32;33665;-80
2023/10/25 09:47:55;;;;;;;3.80;2.53;;;;;;;19.03;62.65;98800.00;4428407;32;33146;-79
2023/10/25 09:50:32;;;;;;;4.37;2.70;;;;;;;19.03;62.49;98800.00;4413309;32;33230;-81
2023/10/25 09:53:06;;;;;;;5.65;2.70;;;;;;;19.11;62.79;98807.84;4419754;32;32404;-80
2023/10/25 09:55:35;;;;;;;3.93;2.60;;;;;;;19.01;63.51;98814.03;4402322;32;31758;-80
2023/10/25 09:58:03;;;;;;;4.90;2.30;;;;;;;19.21;61.57;98813.91;4417854;32;34182;-79
2023/10/25 10:00:30;;;;;;;3.87;2.20;;;;;;;19.33;61.22;98792.81;4410143;32;33685;-79
2023/10/25 10:03:04;;;;;;;3.80;2.10;;;;;;;19.25;60.80;98794.63;4429045;32;34881;-80
2023/10/25 10:05:56;;;;;;;3.65;2.35;;;;;;;19.42;60.30;98797.13;4408970;32;33431;-81
2023/10/25 10:08:30;;;;;;;4.18;2.17;;;;;;;19.53;60.23;98794.41;4414933;32;32665;-80
2023/10/25 10:11:00;;;;;;;3.45;2.15;;;;;;;19.40;60.23;98799.78;4415787;32;33131;-81
2023/10/25 10:13:28;;;;;;;4.95;2.28;;;;;;;19.22;59.82;98785.00;4412411;32;33783;-80
2023/10/25 10:16:01;;;;;;;3.72;2.08;;;;;;;19.25;58.78;98805.13;4422709;32;32305;-80
2023/10/25 10:18:35;;;;;;;3.55;2.00;;;;;;;18.90;59.28;98802.69;4429330;32;33180;-80
2023/10/25 10:21:05;;;;;;;3.47;1.92;;;;;;;19.04;59.23;98803.47;4415793;32;32578;-79
2023/10/25 10:23:50;;;;;;;6.35;2.10;;;;;;;19.17;58.97;98797.28;4421997;32;32208;-80
2023/10/25 10:26:47;;;;;;;4.80;2.00;;;;;;;19.27;57.96;98795.47;4424814;32;33798;-80
2023/10/25 10:29:31;;;;;;;3.78;2.08;;;;;;;19.48;58.41;98796.22;4423114;32;32967;-80
2023/10/25 10:32:00;;;;;;;3.33;2.10;;;;;;;19.76;58.65;98796.87;4422555;32;32681;-81
2023/10/25 10:34:57;;;;;;;2.90;1.90;;;;;;;20.12;56.41;98779.91;4407150;32;32974;-80
2023/10/25 10:37:26;;;;;;;3.33;2.15;;;;;;;20.39;56.18;98788.41;4419935;32;33774;-81
2023/10/25 10:40:02;;;;;;;3.15;1.98;;;;;;;20.51;55.63;98782.97;4420987;32;32531;-80
2023/10/25 10:42:36;;;;;;;3.85;1.90;;;;;;;20.75;54.53;98791.53;4428836;32;33161;-80
2023/10/25 10:45:06;;;;;;;4.35;1.95;;;;;;;20.82;53.71;98782.63;4427667;32;32469;-80
2023/10/25 10:47:39;;;;;;;3.37;1.80;;;;;;;20.80;55.06;98781.78;4434383;32;33242;-79
2023/10/25 10:50:18;;;;;;;3.30;1.80;;;;;;;21.24;52.99;98782.09;4425978;32;33953;-81
2023/10/25 10:52:47;;;;;;;2.45;1.50;;;;;;;21.35;51.71;98778.38;4431465;32;33338;-80
2023/10/25 10:55:16;;;;;;;2.65;1.67;;;;;;;21.28;52.58;98776.72;4429845;32;32621;-79
2023/10/25 10:57:44;;;;;;;2.92;1.50;;;;;;;21.22;52.24;98776.81;4420040;32;33876;-80
2023/10/25 11:00:32;;;;;;;3.33;1.60;;;;;;;21.33;51.63;98774.91;4434154;32;33330;-80
2023/10/25 11:03:01;;;;;;;2.60;1.40;;;;;;;21.32;52.22;98773.16;4427720;32;34258;-80
2023/10/25 11:05:36;;;;;;;2.30;1.40;;;;;;;21.06;51.60;98765.66;4430201;32;32954;-80
2023/10/25 11:08:09;;;;;;;4.80;1.60;;;;;;;21.06;51.36;98757.75;4429810;32;33933;-80
2023/10/25 11:10:37;;;;;;;2.50;1.52;;;;;;;20.62;51.87;98749.56;4424150;32;33382;-80
2023/10/25 11:13:09;;;;;;;2.62;1.42;;;;;;;20.61;52.35;98763.63;4426978;32;33724;-80
2023/10/25 11:15:36;;;;;;;3.05;1.50;;;;;;;20.78;52.03;98771.31;4422616;32;33751;-80
2023/10/25 11:18:10;;;;;;;3.47;1.47;;;;;;;21.05;51.30;98763.91;4433406;32;34464;-80
2023/10/25 11:20:39;;;;;;;3.70;1.58;;;;;;;21.04;51.24;98756.06;4429312;32;34062;-79
2023/10/25 11:23:08;;;;;;;2.75;1.50;;;;;;;20.80;52.31;98752.84;4427758;32;33427;-80
2023/10/25 11:25:37;;;;;;;3.33;1.50;;;;;;;20.92;50.71;98741.28;4418707;32;33134;-80
2023/10/25 11:28:05;;;;;;;3.67;1.57;;;;;;;21.12;51.56;98754.16;4425226;32;34172;-78
2023/10/25 11:30:34;;;;;;;1.85;1.25;;;;;;;21.21;51.17;98743.50;4436071;32;33828;-79
2023/10/25 11:33:03;;;;;;;2.53;1.37;;;;;;;21.24;51.51;98746.06;4427764;32;33534;-79
2023/10/25 11:35:33;;;;;;;2.78;1.55;;;;;;;21.41;51.16;98746.69;4414377;32;33328;-80
2023/10/25 11:38:00;;;;;;;3.20;1.25;;;;;;;21.59;50.11;98756.09;4421576;32;34438;-80